sensor_id;sensor_type;location;lat;lon;timestamp;temperature;humidity
21335;DHT22;69435;52.670;13.544;2023-12-22T00:00:43;6.60;56.70
21335;DHT22;69435;52.670;13.544;2023-12-22T00:03:28;6.70;57.10
21335;DHT22;69435;52.670;13.544;2023-12-22T00:06:14;6.60;56.30
21335;DHT22;69435;52.670;13.544;2023-12-22T00:09:01;6.60;57.00
21335;DHT22;69435;52.670;13.544;2023-12-22T00:11:47;6.60;57.00
21335;DHT22;69435;52.670;13.544;2023-12-22T00:14:33;6.60;55.90
21335;DHT22;69435;52.670;13.544;2023-12-22T00:17:19;6.60;55.90
21335;DHT22;69435;52.670;13.544;2023-12-22T00:20:05;6.60;55.20
21335;DHT22;69435;52.670;13.544;2023-12-22T00:22:51;6.60;54.60
21335;DHT22;69435;52.670;13.544;2023-12-22T00:25:37;6.50;54.20
21335;DHT22;69435;52.670;13.544;2023-12-22T00:28:24;6.50;53.90
21335;DHT22;69435;52.670;13.544;2023-12-22T00:31:09;6.50;54.40
21335;DHT22;69435;52.670;13.544;2023-12-22T00:33:57;6.50;53.70
21335;DHT22;69435;52.670;13.544;2023-12-22T00:36:43;6.50;53.30
21335;DHT22;69435;52.670;13.544;2023-12-22T00:39:29;6.50;53.30
21335;DHT22;69435;52.670;13.544;2023-12-22T00:42:16;6.50;53.40
21335;DHT22;69435;52.670;13.544;2023-12-22T00:45:02;6.50;51.50
21335;DHT22;69435;52.670;13.544;2023-12-22T00:47:49;6.50;51.50
21335;DHT22;69435;52.670;13.544;2023-12-22T00:50:35;6.50;50.30
21335;DHT22;69435;52.670;13.544;2023-12-22T00:53:21;6.50;50.80
21335;DHT22;69435;52.670;13.544;2023-12-22T00:56:07;6.50;51.50
21335;DHT22;69435;52.670;13.544;2023-12-22T00:58:53;6.50;51.00
21335;DHT22;69435;52.670;13.544;2023-12-22T01:01:39;6.50;50.70
21335;DHT22;69435;52.670;13.544;2023-12-22T01:04:25;6.50;50.80
21335;DHT22;69435;52.670;13.544;2023-12-22T01:07:11;6.50;50.50
21335;DHT22;69435;52.670;13.544;2023-12-22T01:09:58;6.50;51.50
21335;DHT22;69435;52.670;13.544;2023-12-22T01:12:47;6.50;50.90
21335;DHT22;69435;52.670;13.544;2023-12-22T01:15:34;6.50;51.40
21335;DHT22;69435;52.670;13.544;2023-12-22T01:18:20;6.50;50.80
21335;DHT22;69435;52.670;13.544;2023-12-22T01:21:06;6.50;51.00
21335;DHT22;69435;52.670;13.544;2023-12-22T01:23:52;6.50;51.40
21335;DHT22;69435;52.670;13.544;2023-12-22T01:26:38;6.50;51.60
21335;DHT22;69435;52.670;13.544;2023-12-22T01:29:24;6.50;51.70
21335;DHT22;69435;52.670;13.544;2023-12-22T01:32:10;6.50;52.50
21335;DHT22;69435;52.670;13.544;2023-12-22T01:34:56;6.50;52.10
21335;DHT22;69435;52.670;13.544;2023-12-22T01:37:42;6.50;52.10
21335;DHT22;69435;52.670;13.544;2023-12-22T01:40:28;6.50;52.90
21335;DHT22;69435;52.670;13.544;2023-12-22T01:43:14;6.50;53.10
21335;DHT22;69435;52.670;13.544;2023-12-22T01:46:01;6.50;53.60
21335;DHT22;69435;52.670;13.544;2023-12-22T01:48:47;6.50;54.30
21335;DHT22;69435;52.670;13.544;2023-12-22T01:51:37;6.40;54.90
21335;DHT22;69435;52.670;13.544;2023-12-22T01:54:25;6.40;55.10
21335;DHT22;69435;52.670;13.544;2023-12-22T01:57:14;6.30;55.60
21335;DHT22;69435;52.670;13.544;2023-12-22T02:00:07;6.30;55.90
21335;DHT22;69435;52.670;13.544;2023-12-22T02:02:54;6.30;56.30
21335;DHT22;69435;52.670;13.544;2023-12-22T02:05:44;6.30;56.10
21335;DHT22;69435;52.670;13.544;2023-12-22T02:08:31;6.30;56.00
21335;DHT22;69435;52.670;13.544;2023-12-22T02:11:19;6.20;56.20
21335;DHT22;69435;52.670;13.544;2023-12-22T02:14:05;6.10;56.80
21335;DHT22;69435;52.670;13.544;2023-12-22T02:17:02;6.10;56.70
21335;DHT22;69435;52.670;13.544;2023-12-22T02:19:58;6.10;56.60
21335;DHT22;69435;52.670;13.544;2023-12-22T02:22:44;6.00;56.50
21335;DHT22;69435;52.670;13.544;2023-12-22T02:25:30;5.90;57.10
21335;DHT22;69435;52.670;13.544;2023-12-22T02:28:17;5.90;57.50
21335;DHT22;69435;52.670;13.544;2023-12-22T02:31:17;5.80;57.50
21335;DHT22;69435;52.670;13.544;2023-12-22T02:34:07;5.70;57.80
21335;DHT22;69435;52.670;13.544;2023-12-22T02:36:59;5.80;57.60
21335;DHT22;69435;52.670;13.544;2023-12-22T02:39:45;5.70;57.90
21335;DHT22;69435;52.670;13.544;2023-12-22T02:42:33;5.70;58.20
21335;DHT22;69435;52.670;13.544;2023-12-22T02:45:20;5.70;58.30
21335;DHT22;69435;52.670;13.544;2023-12-22T02:48:06;5.70;58.40
21335;DHT22;69435;52.670;13.544;2023-12-22T02:50:52;5.70;58.80
21335;DHT22;69435;52.670;13.544;2023-12-22T02:53:38;5.70;58.80
21335;DHT22;69435;52.670;13.544;2023-12-22T02:56:24;5.70;58.90
21335;DHT22;69435;52.670;13.544;2023-12-22T02:59:10;5.70;59.00
21335;DHT22;69435;52.670;13.544;2023-12-22T03:01:56;5.80;58.80
21335;DHT22;69435;52.670;13.544;2023-12-22T03:04:42;5.80;58.30
21335;DHT22;69435;52.670;13.544;2023-12-22T03:07:28;5.80;58.30
21335;DHT22;69435;52.670;13.544;2023-12-22T03:10:14;5.70;58.40
21335;DHT22;69435;52.670;13.544;2023-12-22T03:13:00;5.70;58.60
21335;DHT22;69435;52.670;13.544;2023-12-22T03:15:46;5.70;58.40
21335;DHT22;69435;52.670;13.544;2023-12-22T03:18:33;5.70;58.20
21335;DHT22;69435;52.670;13.544;2023-12-22T03:21:19;5.70;58.30
21335;DHT22;69435;52.670;13.544;2023-12-22T03:24:05;5.70;58.00
21335;DHT22;69435;52.670;13.544;2023-12-22T03:26:52;5.70;58.10
21335;DHT22;69435;52.670;13.544;2023-12-22T03:29:38;5.70;58.20
21335;DHT22;69435;52.670;13.544;2023-12-22T03:32:24;5.70;58.00
21335;DHT22;69435;52.670;13.544;2023-12-22T03:35:10;5.60;58.00
21335;DHT22;69435;52.670;13.544;2023-12-22T03:37:56;5.60;58.40
21335;DHT22;69435;52.670;13.544;2023-12-22T03:40:42;5.60;58.20
21335;DHT22;69435;52.670;13.544;2023-12-22T03:43:28;5.50;58.40
21335;DHT22;69435;52.670;13.544;2023-12-22T03:46:16;5.50;58.50
21335;DHT22;69435;52.670;13.544;2023-12-22T03:49:03;5.40;58.40
21335;DHT22;69435;52.670;13.544;2023-12-22T03:51:49;5.40;58.90
21335;DHT22;69435;52.670;13.544;2023-12-22T03:54:35;5.40;59.10
21335;DHT22;69435;52.670;13.544;2023-12-22T03:57:21;5.40;59.20
21335;DHT22;69435;52.670;13.544;2023-12-22T04:00:07;5.50;59.70
21335;DHT22;69435;52.670;13.544;2023-12-22T04:02:53;5.50;59.80
21335;DHT22;69435;52.670;13.544;2023-12-22T04:05:39;5.50;59.70
21335;DHT22;69435;52.670;13.544;2023-12-22T04:08:25;5.50;59.70
21335;DHT22;69435;52.670;13.544;2023-12-22T04:11:11;5.60;59.50
21335;DHT22;69435;52.670;13.544;2023-12-22T04:13:58;5.60;59.50
21335;DHT22;69435;52.670;13.544;2023-12-22T04:16:44;5.60;59.50
21335;DHT22;69435;52.670;13.544;2023-12-22T04:19:30;5.60;59.70
21335;DHT22;69435;52.670;13.544;2023-12-22T04:22:16;5.60;59.80
21335;DHT22;69435;52.670;13.544;2023-12-22T04:25:01;5.60;59.90
21335;DHT22;69435;52.670;13.544;2023-12-22T04:27:48;5.60;59.70
21335;DHT22;69435;52.670;13.544;2023-12-22T04:30:35;5.60;59.80
21335;DHT22;69435;52.670;13.544;2023-12-22T04:33:21;5.60;60.30
21335;DHT22;69435;52.670;13.544;2023-12-22T04:36:07;5.60;60.50
21335;DHT22;69435;52.670;13.544;2023-12-22T04:38:53;5.60;60.60
21335;DHT22;69435;52.670;13.544;2023-12-22T04:41:39;5.50;60.90
21335;DHT22;69435;52.670;13.544;2023-12-22T04:44:25;5.40;61.10
21335;DHT22;69435;52.670;13.544;2023-12-22T04:47:11;5.30;61.70
21335;DHT22;69435;52.670;13.544;2023-12-22T04:49:58;5.30;61.70
21335;DHT22;69435;52.670;13.544;2023-12-22T04:52:44;5.20;61.60
21335;DHT22;69435;52.670;13.544;2023-12-22T04:55:30;5.20;61.70
21335;DHT22;69435;52.670;13.544;2023-12-22T04:58:16;5.20;61.70
21335;DHT22;69435;52.670;13.544;2023-12-22T05:01:02;5.20;61.30
21335;DHT22;69435;52.670;13.544;2023-12-22T05:03:48;5.20;61.00
21335;DHT22;69435;52.670;13.544;2023-12-22T05:06:34;5.20;61.00
21335;DHT22;69435;52.670;13.544;2023-12-22T05:09:20;5.20;60.50
21335;DHT22;69435;52.670;13.544;2023-12-22T05:12:06;5.20;60.00
21335;DHT22;69435;52.670;13.544;2023-12-22T05:14:52;5.30;59.70
21335;DHT22;69435;52.670;13.544;2023-12-22T05:17:38;5.30;59.20
21335;DHT22;69435;52.670;13.544;2023-12-22T05:20:26;5.30;59.40
21335;DHT22;69435;52.670;13.544;2023-12-22T05:23:12;5.30;59.60
21335;DHT22;69435;52.670;13.544;2023-12-22T05:25:58;5.20;59.90
21335;DHT22;69435;52.670;13.544;2023-12-22T05:28:44;5.30;60.20
21335;DHT22;69435;52.670;13.544;2023-12-22T05:31:30;5.20;61.00
21335;DHT22;69435;52.670;13.544;2023-12-22T05:34:18;5.20;61.40
21335;DHT22;69435;52.670;13.544;2023-12-22T05:37:04;5.20;61.10
21335;DHT22;69435;52.670;13.544;2023-12-22T05:39:50;5.20;61.50
21335;DHT22;69435;52.670;13.544;2023-12-22T05:42:36;5.20;60.90
21335;DHT22;69435;52.670;13.544;2023-12-22T05:45:22;5.20;61.20
21335;DHT22;69435;52.670;13.544;2023-12-22T05:48:10;5.20;61.10
21335;DHT22;69435;52.670;13.544;2023-12-22T05:50:56;5.20;60.90
21335;DHT22;69435;52.670;13.544;2023-12-22T05:53:43;5.30;61.20
21335;DHT22;69435;52.670;13.544;2023-12-22T05:56:29;5.30;60.20
21335;DHT22;69435;52.670;13.544;2023-12-22T05:59:15;5.30;60.20
21335;DHT22;69435;52.670;13.544;2023-12-22T06:02:01;5.30;60.50
21335;DHT22;69435;52.670;13.544;2023-12-22T06:04:48;5.30;60.00
21335;DHT22;69435;52.670;13.544;2023-12-22T06:07:34;5.20;59.80
21335;DHT22;69435;52.670;13.544;2023-12-22T06:10:20;5.20;59.30
21335;DHT22;69435;52.670;13.544;2023-12-22T06:13:06;5.20;59.30
21335;DHT22;69435;52.670;13.544;2023-12-22T06:15:52;5.20;59.10
21335;DHT22;69435;52.670;13.544;2023-12-22T06:18:38;5.20;59.00
21335;DHT22;69435;52.670;13.544;2023-12-22T06:21:24;5.20;58.80
21335;DHT22;69435;52.670;13.544;2023-12-22T06:24:10;5.20;59.10
21335;DHT22;69435;52.670;13.544;2023-12-22T06:26:56;5.20;58.90
21335;DHT22;69435;52.670;13.544;2023-12-22T06:29:42;5.30;58.90
21335;DHT22;69435;52.670;13.544;2023-12-22T06:32:28;5.30;58.70
21335;DHT22;69435;52.670;13.544;2023-12-22T06:35:14;5.20;57.70
21335;DHT22;69435;52.670;13.544;2023-12-22T06:38:00;5.20;57.90
21335;DHT22;69435;52.670;13.544;2023-12-22T06:40:49;5.20;58.10
21335;DHT22;69435;52.670;13.544;2023-12-22T06:43:36;5.20;58.10
21335;DHT22;69435;52.670;13.544;2023-12-22T06:46:23;5.20;57.90
21335;DHT22;69435;52.670;13.544;2023-12-22T06:49:13;5.20;57.80
21335;DHT22;69435;52.670;13.544;2023-12-22T06:52:00;5.30;57.60
21335;DHT22;69435;52.670;13.544;2023-12-22T06:54:47;5.30;57.50
21335;DHT22;69435;52.670;13.544;2023-12-22T06:57:33;5.30;57.80
21335;DHT22;69435;52.670;13.544;2023-12-22T07:00:19;5.30;57.30
21335;DHT22;69435;52.670;13.544;2023-12-22T07:03:06;5.30;57.50
21335;DHT22;69435;52.670;13.544;2023-12-22T07:05:52;5.30;57.90
21335;DHT22;69435;52.670;13.544;2023-12-22T07:08:38;5.20;58.40
21335;DHT22;69435;52.670;13.544;2023-12-22T07:11:25;5.20;59.00
21335;DHT22;69435;52.670;13.544;2023-12-22T07:14:11;5.20;59.50
21335;DHT22;69435;52.670;13.544;2023-12-22T07:16:57;5.20;60.00
21335;DHT22;69435;52.670;13.544;2023-12-22T07:19:43;5.10;60.70
21335;DHT22;69435;52.670;13.544;2023-12-22T07:22:29;5.10;61.40
21335;DHT22;69435;52.670;13.544;2023-12-22T07:25:16;5.00;61.50
21335;DHT22;69435;52.670;13.544;2023-12-22T07:28:02;5.00;61.20
21335;DHT22;69435;52.670;13.544;2023-12-22T07:30:48;4.80;61.70
21335;DHT22;69435;52.670;13.544;2023-12-22T07:33:34;4.80;62.30
21335;DHT22;69435;52.670;13.544;2023-12-22T07:36:20;4.70;62.20
21335;DHT22;69435;52.670;13.544;2023-12-22T07:39:07;4.70;62.10
21335;DHT22;69435;52.670;13.544;2023-12-22T07:41:54;4.70;62.30
21335;DHT22;69435;52.670;13.544;2023-12-22T07:44:40;4.70;62.40
21335;DHT22;69435;52.670;13.544;2023-12-22T07:47:26;4.60;61.90
21335;DHT22;69435;52.670;13.544;2023-12-22T07:50:12;4.60;61.80
21335;DHT22;69435;52.670;13.544;2023-12-22T07:52:58;4.60;61.50
21335;DHT22;69435;52.670;13.544;2023-12-22T07:55:44;4.70;61.50
21335;DHT22;69435;52.670;13.544;2023-12-22T07:58:32;4.70;61.50
21335;DHT22;69435;52.670;13.544;2023-12-22T08:01:18;4.70;61.20
21335;DHT22;69435;52.670;13.544;2023-12-22T08:04:04;4.70;61.10
21335;DHT22;69435;52.670;13.544;2023-12-22T08:06:50;4.80;60.90
21335;DHT22;69435;52.670;13.544;2023-12-22T08:09:37;4.80;60.40
21335;DHT22;69435;52.670;13.544;2023-12-22T08:12:23;4.90;60.20
21335;DHT22;69435;52.670;13.544;2023-12-22T08:15:09;4.90;60.20
21335;DHT22;69435;52.670;13.544;2023-12-22T08:17:56;4.90;59.80
21335;DHT22;69435;52.670;13.544;2023-12-22T08:20:42;5.00;59.80
21335;DHT22;69435;52.670;13.544;2023-12-22T08:23:28;5.00;59.20
21335;DHT22;69435;52.670;13.544;2023-12-22T08:26:14;5.10;59.50
21335;DHT22;69435;52.670;13.544;2023-12-22T08:29:02;5.10;59.10
21335;DHT22;69435;52.670;13.544;2023-12-22T08:31:48;5.20;58.80
21335;DHT22;69435;52.670;13.544;2023-12-22T08:34:34;5.20;58.70
21335;DHT22;69435;52.670;13.544;2023-12-22T08:37:20;5.30;58.30
21335;DHT22;69435;52.670;13.544;2023-12-22T08:40:07;5.40;57.50
21335;DHT22;69435;52.670;13.544;2023-12-22T08:42:53;5.40;56.30
21335;DHT22;69435;52.670;13.544;2023-12-22T08:45:40;5.50;56.00
21335;DHT22;69435;52.670;13.544;2023-12-22T08:48:26;5.40;56.10
21335;DHT22;69435;52.670;13.544;2023-12-22T08:51:12;5.40;56.40
21335;DHT22;69435;52.670;13.544;2023-12-22T08:53:58;5.40;56.60
21335;DHT22;69435;52.670;13.544;2023-12-22T08:56:44;5.50;57.20
21335;DHT22;69435;52.670;13.544;2023-12-22T08:59:30;5.60;56.50
21335;DHT22;69435;52.670;13.544;2023-12-22T09:02:16;5.60;56.10
21335;DHT22;69435;52.670;13.544;2023-12-22T09:05:02;5.50;56.60
21335;DHT22;69435;52.670;13.544;2023-12-22T09:07:48;5.60;55.60
21335;DHT22;69435;52.670;13.544;2023-12-22T09:10:34;5.50;55.90
21335;DHT22;69435;52.670;13.544;2023-12-22T09:13:21;5.40;55.40
21335;DHT22;69435;52.670;13.544;2023-12-22T09:16:07;5.40;55.50
21335;DHT22;69435;52.670;13.544;2023-12-22T09:18:54;5.30;55.70
21335;DHT22;69435;52.670;13.544;2023-12-22T09:21:40;5.40;55.80
21335;DHT22;69435;52.670;13.544;2023-12-22T09:24:26;5.30;56.00
21335;DHT22;69435;52.670;13.544;2023-12-22T09:27:12;5.40;56.60
21335;DHT22;69435;52.670;13.544;2023-12-22T09:29:58;5.50;54.80
21335;DHT22;69435;52.670;13.544;2023-12-22T09:32:44;5.50;55.40
21335;DHT22;69435;52.670;13.544;2023-12-22T09:35:30;5.50;55.80
21335;DHT22;69435;52.670;13.544;2023-12-22T09:38:16;5.50;55.20
21335;DHT22;69435;52.670;13.544;2023-12-22T09:41:03;5.50;54.40
21335;DHT22;69435;52.670;13.544;2023-12-22T09:43:50;5.50;54.90
21335;DHT22;69435;52.670;13.544;2023-12-22T09:46:38;5.50;55.00
21335;DHT22;69435;52.670;13.544;2023-12-22T09:49:26;5.50;54.30
21335;DHT22;69435;52.670;13.544;2023-12-22T09:52:13;5.50;54.80
21335;DHT22;69435;52.670;13.544;2023-12-22T09:55:01;5.60;53.20
21335;DHT22;69435;52.670;13.544;2023-12-22T09:57:50;5.70;53.10
21335;DHT22;69435;52.670;13.544;2023-12-22T10:00:37;5.80;52.90
21335;DHT22;69435;52.670;13.544;2023-12-22T10:03:24;5.70;52.30
21335;DHT22;69435;52.670;13.544;2023-12-22T10:06:11;5.70;52.60
21335;DHT22;69435;52.670;13.544;2023-12-22T10:08:58;5.70;51.70
21335;DHT22;69435;52.670;13.544;2023-12-22T10:11:44;5.80;52.30
21335;DHT22;69435;52.670;13.544;2023-12-22T10:14:36;5.80;52.10
21335;DHT22;69435;52.670;13.544;2023-12-22T10:17:23;5.80;51.40
21335;DHT22;69435;52.670;13.544;2023-12-22T10:20:10;5.80;51.90
21335;DHT22;69435;52.670;13.544;2023-12-22T10:22:57;5.80;52.50
21335;DHT22;69435;52.670;13.544;2023-12-22T10:25:43;5.90;52.50
21335;DHT22;69435;52.670;13.544;2023-12-22T10:28:29;5.90;52.20
21335;DHT22;69435;52.670;13.544;2023-12-22T10:31:15;6.00;51.00
21335;DHT22;69435;52.670;13.544;2023-12-22T10:34:01;5.90;51.80
21335;DHT22;69435;52.670;13.544;2023-12-22T10:36:47;5.90;51.60
21335;DHT22;69435;52.670;13.544;2023-12-22T10:39:33;5.80;52.10
21335;DHT22;69435;52.670;13.544;2023-12-22T10:42:22;5.90;51.60
21335;DHT22;69435;52.670;13.544;2023-12-22T10:45:08;5.80;52.20
21335;DHT22;69435;52.670;13.544;2023-12-22T10:47:54;5.90;52.30
21335;DHT22;69435;52.670;13.544;2023-12-22T10:50:40;5.90;52.70
21335;DHT22;69435;52.670;13.544;2023-12-22T10:53:27;5.90;52.70
21335;DHT22;69435;52.670;13.544;2023-12-22T10:56:13;6.00;51.70
21335;DHT22;69435;52.670;13.544;2023-12-22T10:58:59;6.10;51.50
21335;DHT22;69435;52.670;13.544;2023-12-22T11:01:45;6.10;51.70
21335;DHT22;69435;52.670;13.544;2023-12-22T11:04:35;6.10;51.00
21335;DHT22;69435;52.670;13.544;2023-12-22T11:07:24;6.20;50.80
21335;DHT22;69435;52.670;13.544;2023-12-22T11:10:13;6.30;51.40
21335;DHT22;69435;52.670;13.544;2023-12-22T11:13:05;6.40;51.10
21335;DHT22;69435;52.670;13.544;2023-12-22T11:15:52;6.40;50.40
21335;DHT22;69435;52.670;13.544;2023-12-22T11:18:40;6.40;50.90
21335;DHT22;69435;52.670;13.544;2023-12-22T11:21:28;6.40;50.70
21335;DHT22;69435;52.670;13.544;2023-12-22T11:24:15;6.40;50.40
21335;DHT22;69435;52.670;13.544;2023-12-22T11:27:04;6.30;51.10
21335;DHT22;69435;52.670;13.544;2023-12-22T11:29:51;6.40;51.20
21335;DHT22;69435;52.670;13.544;2023-12-22T11:32:39;6.40;50.70
21335;DHT22;69435;52.670;13.544;2023-12-22T11:35:25;6.40;50.80
21335;DHT22;69435;52.670;13.544;2023-12-22T11:38:13;6.30;50.10
21335;DHT22;69435;52.670;13.544;2023-12-22T11:41:00;6.30;51.00
21335;DHT22;69435;52.670;13.544;2023-12-22T11:43:51;6.40;50.00
21335;DHT22;69435;52.670;13.544;2023-12-22T11:46:38;6.40;49.60
21335;DHT22;69435;52.670;13.544;2023-12-22T11:49:34;6.40;49.10
21335;DHT22;69435;52.670;13.544;2023-12-22T11:52:27;6.40;49.60
21335;DHT22;69435;52.670;13.544;2023-12-22T11:55:16;6.50;48.80
21335;DHT22;69435;52.670;13.544;2023-12-22T11:58:41;6.50;48.70
21335;DHT22;69435;52.670;13.544;2023-12-22T12:01:28;6.60;47.50
21335;DHT22;69435;52.670;13.544;2023-12-22T12:04:15;6.60;47.30
21335;DHT22;69435;52.670;13.544;2023-12-22T12:07:37;6.60;47.20
21335;DHT22;69435;52.670;13.544;2023-12-22T12:13:22;6.60;46.40
21335;DHT22;69435;52.670;13.544;2023-12-22T12:16:20;6.60;46.50
21335;DHT22;69435;52.670;13.544;2023-12-22T12:19:08;6.40;47.50
21335;DHT22;69435;52.670;13.544;2023-12-22T12:21:55;6.40;46.50
21335;DHT22;69435;52.670;13.544;2023-12-22T12:24:41;6.50;48.10
21335;DHT22;69435;52.670;13.544;2023-12-22T12:27:28;6.60;47.60
21335;DHT22;69435;52.670;13.544;2023-12-22T12:30:14;6.60;47.40
21335;DHT22;69435;52.670;13.544;2023-12-22T12:33:11;6.70;46.80
21335;DHT22;69435;52.670;13.544;2023-12-22T12:35:59;6.70;45.90
21335;DHT22;69435;52.670;13.544;2023-12-22T12:38:55;6.60;46.70
21335;DHT22;69435;52.670;13.544;2023-12-22T12:41:53;6.50;47.20
21335;DHT22;69435;52.670;13.544;2023-12-22T12:44:39;6.40;47.00
21335;DHT22;69435;52.670;13.544;2023-12-22T12:47:28;6.40;47.70
21335;DHT22;69435;52.670;13.544;2023-12-22T12:50:21;6.40;47.50
21335;DHT22;69435;52.670;13.544;2023-12-22T12:53:09;6.40;47.60
21335;DHT22;69435;52.670;13.544;2023-12-22T12:55:56;6.40;47.50
21335;DHT22;69435;52.670;13.544;2023-12-22T12:58:42;6.40;46.70
21335;DHT22;69435;52.670;13.544;2023-12-22T13:01:28;6.40;47.30
21335;DHT22;69435;52.670;13.544;2023-12-22T13:04:14;6.30;47.50
21335;DHT22;69435;52.670;13.544;2023-12-22T13:07:01;6.30;47.50
21335;DHT22;69435;52.670;13.544;2023-12-22T13:09:47;6.30;47.90
21335;DHT22;69435;52.670;13.544;2023-12-22T13:12:33;6.20;48.10
21335;DHT22;69435;52.670;13.544;2023-12-22T13:15:21;6.20;47.50
21335;DHT22;69435;52.670;13.544;2023-12-22T13:18:07;6.20;48.00
21335;DHT22;69435;52.670;13.544;2023-12-22T13:20:54;6.20;48.50
21335;DHT22;69435;52.670;13.544;2023-12-22T13:23:41;6.20;48.20
21335;DHT22;69435;52.670;13.544;2023-12-22T13:26:27;6.10;48.90
21335;DHT22;69435;52.670;13.544;2023-12-22T13:29:13;6.10;49.40
21335;DHT22;69435;52.670;13.544;2023-12-22T13:32:00;6.10;49.50
21335;DHT22;69435;52.670;13.544;2023-12-22T13:34:55;6.10;49.20
21335;DHT22;69435;52.670;13.544;2023-12-22T13:37:42;6.10;49.80
21335;DHT22;69435;52.670;13.544;2023-12-22T13:40:29;6.00;49.50
21335;DHT22;69435;52.670;13.544;2023-12-22T13:43:15;6.00;48.60
21335;DHT22;69435;52.670;13.544;2023-12-22T13:46:01;6.00;49.00
21335;DHT22;69435;52.670;13.544;2023-12-22T13:48:47;6.00;49.10
21335;DHT22;69435;52.670;13.544;2023-12-22T13:54:32;6.10;49.20
21335;DHT22;69435;52.670;13.544;2023-12-22T13:57:20;6.10;47.90
21335;DHT22;69435;52.670;13.544;2023-12-22T14:03:06;6.20;47.50
21335;DHT22;69435;52.670;13.544;2023-12-22T14:05:52;6.10;47.80
21335;DHT22;69435;52.670;13.544;2023-12-22T14:08:39;6.20;48.00
21335;DHT22;69435;52.670;13.544;2023-12-22T14:11:26;6.20;48.00
21335;DHT22;69435;52.670;13.544;2023-12-22T14:14:12;6.20;47.40
21335;DHT22;69435;52.670;13.544;2023-12-22T14:16:59;6.20;47.10
21335;DHT22;69435;52.670;13.544;2023-12-22T14:19:44;6.20;46.90
21335;DHT22;69435;52.670;13.544;2023-12-22T14:22:30;6.10;47.20
21335;DHT22;69435;52.670;13.544;2023-12-22T14:25:17;6.00;47.40
21335;DHT22;69435;52.670;13.544;2023-12-22T14:28:03;6.00;46.80
21335;DHT22;69435;52.670;13.544;2023-12-22T14:30:49;6.00;46.70
21335;DHT22;69435;52.670;13.544;2023-12-22T14:33:35;5.90;46.10
21335;DHT22;69435;52.670;13.544;2023-12-22T14:36:21;5.90;47.00
21335;DHT22;69435;52.670;13.544;2023-12-22T14:39:07;5.90;46.90
21335;DHT22;69435;52.670;13.544;2023-12-22T14:41:56;5.90;47.30
21335;DHT22;69435;52.670;13.544;2023-12-22T14:44:42;5.90;47.30
21335;DHT22;69435;52.670;13.544;2023-12-22T14:47:28;5.90;46.60
21335;DHT22;69435;52.670;13.544;2023-12-22T14:50:14;5.90;46.90
21335;DHT22;69435;52.670;13.544;2023-12-22T14:53:00;5.90;47.20
21335;DHT22;69435;52.670;13.544;2023-12-22T14:55:46;5.90;47.30
21335;DHT22;69435;52.670;13.544;2023-12-22T14:58:32;5.90;47.60
21335;DHT22;69435;52.670;13.544;2023-12-22T15:01:18;5.90;47.70
21335;DHT22;69435;52.670;13.544;2023-12-22T15:04:04;5.90;49.50
21335;DHT22;69435;52.670;13.544;2023-12-22T15:06:51;5.90;51.20
21335;DHT22;69435;52.670;13.544;2023-12-22T15:09:40;5.90;52.50
21335;DHT22;69435;52.670;13.544;2023-12-22T15:12:26;5.90;53.20
21335;DHT22;69435;52.670;13.544;2023-12-22T15:15:14;5.90;53.60
21335;DHT22;69435;52.670;13.544;2023-12-22T15:18:00;5.80;53.90
21335;DHT22;69435;52.670;13.544;2023-12-22T15:20:46;5.80;53.90
21335;DHT22;69435;52.670;13.544;2023-12-22T15:23:34;5.70;53.90
21335;DHT22;69435;52.670;13.544;2023-12-22T15:26:21;5.70;53.90
21335;DHT22;69435;52.670;13.544;2023-12-22T15:29:08;5.70;53.60
21335;DHT22;69435;52.670;13.544;2023-12-22T15:31:57;5.70;53.70
21335;DHT22;69435;52.670;13.544;2023-12-22T15:34:45;5.60;53.30
21335;DHT22;69435;52.670;13.544;2023-12-22T15:37:32;5.50;53.30
21335;DHT22;69435;52.670;13.544;2023-12-22T15:40:18;5.50;53.40
21335;DHT22;69435;52.670;13.544;2023-12-22T15:43:05;5.50;53.80
21335;DHT22;69435;52.670;13.544;2023-12-22T15:45:51;5.40;54.10
21335;DHT22;69435;52.670;13.544;2023-12-22T15:48:37;5.30;54.60
21335;DHT22;69435;52.670;13.544;2023-12-22T15:51:23;5.30;54.70
21335;DHT22;69435;52.670;13.544;2023-12-22T15:54:09;5.30;55.00
21335;DHT22;69435;52.670;13.544;2023-12-22T15:56:55;5.30;56.10
21335;DHT22;69435;52.670;13.544;2023-12-22T15:59:41;5.30;55.60
21335;DHT22;69435;52.670;13.544;2023-12-22T16:02:27;5.30;55.80
21335;DHT22;69435;52.670;13.544;2023-12-22T16:05:13;5.30;56.10
21335;DHT22;69435;52.670;13.544;2023-12-22T16:08:00;5.20;56.30
21335;DHT22;69435;52.670;13.544;2023-12-22T16:10:48;5.30;56.60
21335;DHT22;69435;52.670;13.544;2023-12-22T16:13:34;5.30;56.60
21335;DHT22;69435;52.670;13.544;2023-12-22T16:16:20;5.30;56.80
21335;DHT22;69435;52.670;13.544;2023-12-22T16:19:06;5.30;57.10
21335;DHT22;69435;52.670;13.544;2023-12-22T16:21:52;5.30;57.40
21335;DHT22;69435;52.670;13.544;2023-12-22T16:24:38;5.30;57.50
21335;DHT22;69435;52.670;13.544;2023-12-22T16:27:25;5.30;57.60
21335;DHT22;69435;52.670;13.544;2023-12-22T16:30:11;5.20;57.60
21335;DHT22;69435;52.670;13.544;2023-12-22T16:32:59;5.30;57.80
21335;DHT22;69435;52.670;13.544;2023-12-22T16:35:46;5.30;57.90
21335;DHT22;69435;52.670;13.544;2023-12-22T16:38:32;5.30;58.10
21335;DHT22;69435;52.670;13.544;2023-12-22T16:41:18;5.30;58.10
21335;DHT22;69435;52.670;13.544;2023-12-22T16:44:05;5.20;57.90
21335;DHT22;69435;52.670;13.544;2023-12-22T16:46:52;5.20;57.90
21335;DHT22;69435;52.670;13.544;2023-12-22T16:49:37;5.20;57.80
21335;DHT22;69435;52.670;13.544;2023-12-22T16:52:23;5.20;57.70
21335;DHT22;69435;52.670;13.544;2023-12-22T16:55:09;5.10;57.90
21335;DHT22;69435;52.670;13.544;2023-12-22T16:57:55;5.10;58.10
21335;DHT22;69435;52.670;13.544;2023-12-22T17:00:41;5.00;57.90
21335;DHT22;69435;52.670;13.544;2023-12-22T17:03:27;5.00;58.10
21335;DHT22;69435;52.670;13.544;2023-12-22T17:06:14;5.00;58.00
21335;DHT22;69435;52.670;13.544;2023-12-22T17:09:00;5.00;57.90
21335;DHT22;69435;52.670;13.544;2023-12-22T17:11:46;5.00;57.50
21335;DHT22;69435;52.670;13.544;2023-12-22T17:14:32;5.00;57.30
21335;DHT22;69435;52.670;13.544;2023-12-22T17:17:17;5.00;57.30
21335;DHT22;69435;52.670;13.544;2023-12-22T17:20:04;5.00;57.30
21335;DHT22;69435;52.670;13.544;2023-12-22T17:22:52;5.00;56.90
21335;DHT22;69435;52.670;13.544;2023-12-22T17:25:38;5.00;56.90
21335;DHT22;69435;52.670;13.544;2023-12-22T17:28:24;5.00;56.70
21335;DHT22;69435;52.670;13.544;2023-12-22T17:31:10;5.10;56.70
21335;DHT22;69435;52.670;13.544;2023-12-22T17:33:56;5.10;56.70
21335;DHT22;69435;52.670;13.544;2023-12-22T17:36:43;5.10;56.60
21335;DHT22;69435;52.670;13.544;2023-12-22T17:39:29;5.10;56.60
21335;DHT22;69435;52.670;13.544;2023-12-22T17:42:15;5.10;56.30